Time;durP1;ratioP1;P1;durP2;ratioP2;P2;SDS_P1;SDS_P2;PMS_P1;PMS_P2;Temp;Humidity;BMP_temperature;BMP_pressure;BME280_temperature;BME280_humidity;BME280_pressure;Samples;Min_cycle;Max_cycle;Signal;HPM_P1;HPM_P2
2023/05/23 00:01:49;;;;;;;10.77;9.68;;;;;;;21.92;65.48;100198.78;5049222;28;20482;-76
2023/05/23 00:04:17;;;;;;;10.60;9.50;;;;;;;21.86;65.60;100196.47;5036176;28;20417;-76
2023/05/23 00:06:49;;;;;;;14.98;10.73;;;;;;;21.82;65.71;100196.31;5038554;28;20484;-76
2023/05/23 00:09:15;;;;;;;17.48;10.82;;;;;;;21.85;65.66;100192.91;5048572;28;20397;-76
2023/05/23 00:11:44;;;;;;;11.65;9.93;;;;;;;21.83;65.71;100194.38;5047820;28;20404;-76
2023/05/23 00:14:14;;;;;;;14.07;10.43;;;;;;;21.81;65.72;100193.88;5031282;28;20965;-76
2023/05/23 00:16:40;;;;;;;13.95;10.52;;;;;;;21.85;65.52;100194.84;5027385;28;20887;-76
2023/05/23 00:19:05;;;;;;;11.60;9.07;;;;;;;21.83;65.53;100206.22;5049779;28;20831;-76
2023/05/23 00:21:31;;;;;;;10.93;9.77;;;;;;;21.82;65.46;100201.00;5044391;28;20494;-76
2023/05/23 00:23:57;;;;;;;14.00;10.13;;;;;;;21.76;65.63;100202.31;5038242;28;20504;-76
2023/05/23 00:26:23;;;;;;;11.93;10.27;;;;;;;21.67;65.83;100205.88;5049638;28;20385;-76
2023/05/23 00:28:48;;;;;;;10.65;9.55;;;;;;;21.62;65.98;100213.50;5048381;28;20400;-76
2023/05/23 00:31:13;;;;;;;10.57;9.50;;;;;;;21.59;66.04;100205.88;5049627;28;20463;-76
2023/05/23 00:33:38;;;;;;;14.63;10.10;;;;;;;21.57;66.00;100206.19;5037241;28;20771;-76
2023/05/23 00:36:04;;;;;;;10.87;9.77;;;;;;;21.52;66.24;100213.81;5049584;28;20389;-76
2023/05/23 00:38:30;;;;;;;15.20;10.95;;;;;;;21.48;66.34;100210.09;5043886;28;20806;-76
2023/05/23 00:40:55;;;;;;;11.53;9.77;;;;;;;21.52;66.21;100202.81;5044394;28;20496;-76
2023/05/23 00:43:21;;;;;;;14.57;10.53;;;;;;;21.55;66.11;100211.25;5042250;28;20462;-76
2023/05/23 00:45:47;;;;;;;12.05;9.95;;;;;;;21.55;66.13;100202.97;5049301;28;20492;-76
2023/05/23 00:48:13;;;;;;;12.88;9.55;;;;;;;21.56;66.19;100204.59;5049461;28;20421;-76
2023/05/23 00:50:39;;;;;;;11.18;10.07;;;;;;;21.55;66.24;100208.47;5049159;28;20433;-76
2023/05/23 00:53:04;;;;;;;11.35;9.75;;;;;;;21.55;66.38;100207.66;5045345;28;20412;-76
2023/05/23 00:55:31;;;;;;;13.77;10.40;;;;;;;21.54;66.34;100208.78;5048952;28;20397;-77
2023/05/23 00:57:57;;;;;;;11.83;9.43;;;;;;;21.56;66.36;100215.63;5049398;28;20386;-76
2023/05/23 01:00:24;;;;;;;12.60;9.93;;;;;;;21.57;66.48;100219.19;5049483;28;20425;-76
2023/05/23 01:02:53;;;;;;;12.60;10.15;;;;;;;21.61;66.25;100225.66;5037662;28;20529;-76
2023/05/23 01:05:21;;;;;;;12.68;10.65;;;;;;;21.59;66.41;100226.00;5022732;28;20401;-76
2023/05/23 01:07:47;;;;;;;11.37;9.93;;;;;;;21.54;66.54;100220.63;5048070;28;20867;-76
2023/05/23 01:10:15;;;;;;;12.50;10.73;;;;;;;21.45;66.76;100216.25;5047828;28;20884;-76
2023/05/23 01:12:43;;;;;;;13.52;11.05;;;;;;;21.28;67.16;100221.72;5043693;28;20394;-76
2023/05/23 01:15:11;;;;;;;12.48;10.68;;;;;;;21.29;67.15;100218.66;5023922;28;20879;-76
2023/05/23 01:17:57;;;;;;;13.38;11.13;;;;;;;21.27;66.97;100212.69;5053001;28;20892;-76
2023/05/23 01:20:27;;;;;;;11.93;10.30;;;;;;;21.17;67.27;100216.53;5048531;28;20409;-76
2023/05/23 01:22:59;;;;;;;11.73;10.52;;;;;;;21.18;67.25;100211.81;5049985;28;20386;-76
2023/05/23 01:25:52;;;;;;;12.50;11.02;;;;;;;21.18;67.15;100217.34;5052987;28;20507;-76
2023/05/23 01:28:20;;;;;;;12.83;10.70;;;;;;;21.09;67.40;100211.81;5052611;28;20385;-76
2023/05/23 01:30:49;;;;;;;12.88;11.25;;;;;;;21.03;67.55;100212.25;5037500;28;20508;-76
2023/05/23 01:33:17;;;;;;;13.57;11.52;;;;;;;20.93;67.96;100218.06;5053063;28;20378;-76
2023/05/23 01:35:43;;;;;;;12.85;11.52;;;;;;;20.94;67.89;100217.75;5052715;28;20385;-76
2023/05/23 01:38:08;;;;;;;13.68;11.25;;;;;;;20.93;67.80;100210.63;5049066;28;20463;-76
2023/05/23 01:40:35;;;;;;;12.10;10.90;;;;;;;20.92;67.83;100222.75;5045865;28;20793;-76
2023/05/23 01:43:01;;;;;;;12.98;11.55;;;;;;;20.90;67.81;100216.75;5028624;28;20398;-76
2023/05/23 01:45:28;;;;;;;14.20;11.57;;;;;;;20.89;68.08;100222.56;5052911;28;20388;-76
2023/05/23 01:47:54;;;;;;;13.68;11.65;;;;;;;20.98;67.76;100226.97;5051542;28;20736;-76
2023/05/23 01:50:21;;;;;;;14.02;12.05;;;;;;;21.02;67.52;100225.22;5048128;28;20403;-76
2023/05/23 01:52:46;;;;;;;13.48;11.70;;;;;;;21.02;67.72;100224.41;5036661;28;20451;-76
2023/05/23 01:55:15;;;;;;;13.77;12.30;;;;;;;21.04;67.41;100222.16;5052353;28;20393;-76
2023/05/23 01:57:41;;;;;;;13.60;12.13;;;;;;;20.94;67.81;100225.19;5052302;28;20894;-77
2023/05/23 02:00:07;;;;;;;16.90;12.93;;;;;;;20.94;67.73;100228.78;5050203;28;20418;-76
2023/05/23 02:02:32;;;;;;;15.40;11.95;;;;;;;20.96;67.85;100239.47;5036031;28;20480;-76
2023/05/23 02:04:58;;;;;;;15.63;12.35;;;;;;;20.93;68.04;100242.84;5045407;28;20404;-76
2023/05/23 02:07:24;;;;;;;16.70;13.03;;;;;;;20.85;68.19;100240.84;5047541;28;20398;-76
2023/05/23 02:09:49;;;;;;;15.53;12.47;;;;;;;20.88;68.26;100234.75;5048513;28;20896;-76
2023/05/23 02:12:14;;;;;;;14.63;12.90;;;;;;;20.92;67.97;100236.53;5036397;28;20459;-76
2023/05/23 02:14:41;;;;;;;15.27;13.13;;;;;;;20.88;68.29;100240.25;5051876;28;20744;-76
2023/05/23 02:17:08;;;;;;;19.13;14.05;;;;;;;20.87;68.28;100238.63;5046332;28;20387;-76
2023/05/23 02:19:34;;;;;;;17.48;13.15;;;;;;;20.77;68.62;100245.22;5048237;28;20433;-77
2023/05/23 02:21:59;;;;;;;16.47;13.60;;;;;;;20.75;68.78;100239.19;5028126;28;20441;-76
2023/05/23 02:24:24;;;;;;;17.80;14.50;;;;;;;20.73;68.74;100233.22;5051812;28;20401;-76
2023/05/23 02:26:50;;;;;;;20.17;15.37;;;;;;;20.72;69.02;100245.34;5051733;28;20868;-76
2023/05/23 02:29:15;;;;;;;17.87;14.33;;;;;;;20.85;68.46;100241.69;5050334;28;20795;-77
2023/05/23 02:31:40;;;;;;;20.67;16.00;;;;;;;20.94;68.10;100250.81;5034394;28;20417;-77
2023/05/23 02:34:05;;;;;;;22.20;16.23;;;;;;;20.89;68.29;100250.13;5051806;28;20520;-77
2023/05/23 02:36:32;;;;;;;19.87;15.83;;;;;;;20.87;68.59;100246.88;5051736;28;20738;-77
2023/05/23 02:38:57;;;;;;;19.45;16.00;;;;;;;20.92;68.42;100250.28;5040553;28;20391;-76
2023/05/23 02:41:22;;;;;;;21.80;16.53;;;;;;;20.89;68.39;100242.69;5039202;28;20511;-76
2023/05/23 02:43:48;;;;;;;22.43;17.27;;;;;;;20.83;68.65;100245.88;5051512;28;20397;-77
2023/05/23 02:46:13;;;;;;;23.42;16.60;;;;;;;20.77;68.87;100249.91;5049545;28;20539;-77
2023/05/23 02:48:38;;;;;;;22.93;17.27;;;;;;;20.70;69.04;100248.44;5051335;28;20405;-77
2023/05/23 02:51:04;;;;;;;22.90;17.83;;;;;;;20.63;69.28;100248.06;5043852;28;20407;-76
2023/05/23 02:53:29;;;;;;;23.80;17.80;;;;;;;20.65;69.33;100256.00;5050531;28;20748;-76
2023/05/23 02:55:54;;;;;;;21.77;17.37;;;;;;;20.66;69.21;100252.94;5043380;28;20417;-76
2023/05/23 02:58:19;;;;;;;28.07;18.93;;;;;;;20.65;69.49;100254.06;5051191;28;20397;-76
2023/05/23 03:00:45;;;;;;;24.23;18.13;;;;;;;20.73;69.28;100258.00;5047806;28;20421;-77
2023/05/23 03:03:10;;;;;;;26.67;17.63;;;;;;;20.70;69.38;100248.44;5028546;28;20902;-76
2023/05/23 03:05:36;;;;;;;21.77;17.93;;;;;;;20.75;69.44;100247.47;5051082;28;20442;-77
2023/05/23 03:08:01;;;;;;;28.55;18.55;;;;;;;20.79;69.23;100255.91;5049690;28;20394;-77
2023/05/23 03:10:29;;;;;;;24.83;16.63;;;;;;;20.78;69.29;100255.09;5050817;28;20389;-77
2023/05/23 03:12:54;;;;;;;24.17;17.77;;;;;;;20.75;69.60;100255.72;5031893;28;20423;-77
2023/05/23 03:15:20;;;;;;;23.33;17.92;;;;;;;20.78;69.36;100249.59;5049586;28;20400;-77
2023/05/23 03:17:45;;;;;;;25.20;18.40;;;;;;;20.82;69.36;100258.84;5050742;28;20397;-77
2023/05/23 03:20:10;;;;;;;26.43;18.60;;;;;;;20.82;69.28;100258.84;5050541;28;20401;-76
2023/05/23 03:22:36;;;;;;;26.00;18.30;;;;;;;20.83;69.39;100267.91;5031951;28;20498;-76
2023/05/23 03:25:01;;;;;;;27.50;20.05;;;;;;;20.79;69.40;100265.00;5050544;28;20484;-77
2023/05/23 03:27:26;;;;;;;25.80;17.90;;;;;;;20.76;69.55;100262.06;5050607;28;20394;-77
2023/05/23 03:29:52;;;;;;;28.87;20.87;;;;;;;20.75;69.62;100266.75;5034573;28;20416;-77
2023/05/23 03:32:17;;;;;;;27.17;20.93;;;;;;;20.76;69.29;100265.63;5033211;28;20529;-77
2023/05/23 03:34:42;;;;;;;29.73;20.57;;;;;;;20.73;69.42;100276.47;5049111;28;20398;-76
2023/05/23 03:37:08;;;;;;;29.73;20.00;;;;;;;20.73;69.52;100279.22;5048221;28;20385;-77
2023/05/23 03:39:33;;;;;;;31.83;21.43;;;;;;;20.70;69.51;100283.41;5037737;28;20457;-77
2023/05/23 03:41:58;;;;;;;31.10;21.17;;;;;;;20.67;69.83;100281.31;5046104;28;20393;-77
2023/05/23 03:44:23;;;;;;;29.47;19.70;;;;;;;20.68;69.76;100280.19;5048337;28;20383;-77
2023/05/23 03:46:48;;;;;;;32.47;20.53;;;;;;;20.70;69.66;100281.47;5041318;28;20404;-77
2023/05/23 03:49:14;;;;;;;27.50;19.97;;;;;;;20.69;69.63;100288.09;5049247;28;20453;-77
2023/05/23 03:51:39;;;;;;;30.27;21.00;;;;;;;20.59;69.79;100291.13;5039863;28;20760;-77
2023/05/23 03:54:05;;;;;;;31.55;20.65;;;;;;;20.60;70.09;100290.00;5047133;28;20393;-76
2023/05/23 03:56:30;;;;;;;29.97;21.63;;;;;;;20.57;70.00;100292.56;5048811;28;20477;-77
2023/05/23 03:58:55;;;;;;;34.87;23.23;;;;;;;20.41;70.51;100291.34;5049991;28;20781;-77
2023/05/23 04:01:21;;;;;;;28.80;22.33;;;;;;;20.49;70.38;100290.56;5043902;28;20417;-77
2023/05/23 04:03:46;;;;;;;29.87;21.80;;;;;;;20.59;69.92;100291.13;5030563;28;20442;-77
2023/05/23 04:06:12;;;;;;;30.67;22.05;;;;;;;20.51;70.05;100294.66;5027453;28;20415;-77
2023/05/23 04:08:40;;;;;;;27.90;20.83;;;;;;;20.45;70.44;100293.13;5028791;28;20416;-76
2023/05/23 04:11:06;;;;;;;26.15;20.23;;;;;;;20.51;70.09;100291.91;5028786;28;20408;-77
2023/05/23 04:13:32;;;;;;;29.03;21.10;;;;;;;20.51;69.95;100296.59;5041404;28;20394;-77
2023/05/23 04:16:00;;;;;;;31.13;21.90;;;;;;;20.57;69.79;100292.56;5034338;28;20418;-77
2023/05/23 04:18:25;;;;;;;30.02;20.52;;;;;;;20.58;69.60;100303.25;5028991;28;20416;-77
2023/05/23 04:20:51;;;;;;;29.83;21.47;;;;;;;20.61;69.49;100313.63;5034820;28;20505;-76
2023/05/23 04:23:16;;;;;;;32.65;21.13;;;;;;;20.60;69.44;100305.72;5035277;28;20412;-77
2023/05/23 04:25:41;;;;;;;30.30;22.07;;;;;;;20.62;69.10;100306.19;5031404;28;20412;-77
2023/05/23 04:28:09;;;;;;;32.93;21.13;;;;;;;20.52;69.35;100310.03;5029759;28;20426;-77
2023/05/23 04:30:34;;;;;;;29.92;22.17;;;;;;;20.46;69.55;100316.78;5036153;28;20806;-77
2023/05/23 04:32:59;;;;;;;31.10;21.40;;;;;;;20.54;69.34;100310.53;5027327;28;20407;-77
2023/05/23 04:35:27;;;;;;;31.10;20.93;;;;;;;20.58;69.15;100310.72;5036531;28;20402;-77
2023/05/23 04:37:55;;;;;;;29.23;21.25;;;;;;;20.59;69.26;100304.91;5035343;28;20393;-77
2023/05/23 04:40:24;;;;;;;30.63;19.98;;;;;;;20.64;69.02;100314.97;5030904;28;20421;-77
2023/05/23 04:42:50;;;;;;;29.55;21.15;;;;;;;20.63;69.14;100325.16;5025330;28;20442;-77
2023/05/23 04:45:16;;;;;;;30.85;21.05;;;;;;;20.59;68.98;100324.16;5026696;28;20446;-77
2023/05/23 04:47:43;;;;;;;30.38;21.83;;;;;;;20.62;68.82;100323.53;5024824;28;20879;-77
2023/05/23 04:50:09;;;;;;;28.15;21.58;;;;;;;20.61;68.80;100321.91;5028120;28;20430;-77
2023/05/23 04:52:35;;;;;;;30.25;20.80;;;;;;;20.64;68.69;100334.25;5035361;28;20411;-77
2023/05/23 04:55:00;;;;;;;26.70;21.13;;;;;;;20.65;68.55;100325.66;5032150;28;20407;-78
2023/05/23 04:57:25;;;;;;;26.73;20.70;;;;;;;20.66;68.37;100329.22;5035741;28;20407;-77
2023/05/23 04:59:51;;;;;;;29.80;20.63;;;;;;;20.71;68.00;100327.16;5037482;28;20441;-77
2023/05/23 05:02:16;;;;;;;26.43;20.23;;;;;;;20.79;68.03;100330.28;5036835;28;20439;-77
2023/05/23 05:04:42;;;;;;;28.23;20.43;;;;;;;20.84;67.83;100332.91;5025173;28;20409;-76
2023/05/23 05:07:07;;;;;;;27.33;20.23;;;;;;;20.85;67.76;100331.75;5034307;28;20422;-77
2023/05/23 05:09:32;;;;;;;25.48;19.17;;;;;;;20.86;67.54;100331.44;5023519;28;20407;-77
2023/05/23 05:11:58;;;;;;;28.87;20.47;;;;;;;20.92;66.96;100329.38;5036261;28;20764;-76
2023/05/23 05:14:25;;;;;;;26.47;19.70;;;;;;;20.97;66.68;100332.81;5034130;28;20403;-77
2023/05/23 05:16:50;;;;;;;25.95;19.17;;;;;;;20.99;66.42;100338.00;5032601;28;20401;-77
2023/05/23 05:19:15;;;;;;;25.47;19.70;;;;;;;20.98;66.35;100341.88;5034821;28;20399;-77
2023/05/23 05:21:41;;;;;;;26.67;20.33;;;;;;;21.00;66.32;100353.41;5038907;28;20487;-77
2023/05/23 05:24:08;;;;;;;25.20;19.67;;;;;;;21.00;66.22;100345.13;5026663;28;20918;-77
2023/05/23 05:26:35;;;;;;;24.23;19.33;;;;;;;21.01;66.31;100341.25;5033984;28;20809;-77
2023/05/23 05:29:00;;;;;;;23.88;18.73;;;;;;;21.04;66.17;100343.38;5031254;28;20406;-76
2023/05/23 05:31:26;;;;;;;26.27;18.93;;;;;;;21.08;66.09;100347.09;5029248;28;20513;-77
2023/05/23 05:33:51;;;;;;;25.70;19.00;;;;;;;21.08;65.80;100347.09;5028997;28;21048;-77
2023/05/23 05:36:18;;;;;;;24.33;18.83;;;;;;;21.07;65.88;100348.25;5030337;28;20871;-77
2023/05/23 05:38:44;;;;;;;26.15;18.65;;;;;;;21.08;65.80;100355.38;5025307;28;20421;-77
2023/05/23 05:41:10;;;;;;;24.83;18.97;;;;;;;21.09;65.33;100352.34;5029205;28;20406;-77
2023/05/23 05:43:35;;;;;;;21.23;17.90;;;;;;;21.09;65.22;100349.59;5026567;28;20444;-77
2023/05/23 05:46:00;;;;;;;25.60;19.07;;;;;;;21.07;65.39;100362.03;5035046;28;20411;-77
2023/05/23 05:48:25;;;;;;;23.87;19.23;;;;;;;21.06;65.33;100363.97;5033479;28;20438;-76
2023/05/23 05:50:51;;;;;;;23.03;18.30;;;;;;;21.07;65.27;100357.34;5031481;28;20423;-77
2023/05/23 05:53:16;;;;;;;24.83;18.03;;;;;;;21.12;64.99;100364.66;5017943;28;20470;-78
2023/05/23 05:55:41;;;;;;;20.38;15.95;;;;;;;21.12;64.48;100367.44;5024492;28;20486;-77
2023/05/23 05:58:07;;;;;;;22.60;17.17;;;;;;;21.17;64.18;100364.53;5028399;28;20411;-77
2023/05/23 06:00:33;;;;;;;18.33;14.83;;;;;;;21.28;63.64;100370.56;5030432;28;20422;-77
2023/05/23 06:02:59;;;;;;;18.13;14.48;;;;;;;21.36;62.96;100367.03;5030058;28;20461;-77
2023/05/23 06:05:25;;;;;;;20.90;14.75;;;;;;;21.34;62.65;100375.63;5032474;28;20443;-77
2023/05/23 06:07:51;;;;;;;17.98;14.10;;;;;;;21.33;62.51;100379.53;5031232;28;20831;-77
2023/05/23 06:10:16;;;;;;;18.07;13.60;;;;;;;21.35;62.34;100376.44;5022306;28;20490;-77
2023/05/23 06:12:42;;;;;;;17.80;12.95;;;;;;;21.32;62.44;100382.59;5028280;28;20407;-77
2023/05/23 06:15:08;;;;;;;15.30;12.50;;;;;;;21.39;61.76;100377.44;5029718;28;20773;-76
2023/05/23 06:17:34;;;;;;;15.85;12.40;;;;;;;21.45;61.31;100390.75;5032397;28;20493;-77
2023/05/23 06:19:59;;;;;;;17.00;13.25;;;;;;;21.45;60.78;100393.50;5033388;28;20971;-76
2023/05/23 06:22:24;;;;;;;18.90;12.53;;;;;;;21.43;60.74;100389.47;5033004;28;20411;-77
2023/05/23 06:24:49;;;;;;;15.60;12.47;;;;;;;21.40;60.75;100395.59;5026897;28;20405;-77
2023/05/23 06:27:15;;;;;;;17.13;13.57;;;;;;;21.25;60.75;100404.28;5032441;28;20762;-76
2023/05/23 06:29:40;;;;;;;16.83;13.33;;;;;;;21.19;60.85;100401.69;5028614;28;20423;-77
2023/05/23 06:32:05;;;;;;;15.20;12.87;;;;;;;21.25;60.68;100407.03;5034550;28;20429;-77
2023/05/23 06:34:31;;;;;;;17.75;12.98;;;;;;;21.20;60.97;100414.34;5033925;28;20403;-78
2023/05/23 06:36:56;;;;;;;14.47;12.40;;;;;;;21.25;60.75;100410.63;5033756;28;20444;-76
2023/05/23 06:39:21;;;;;;;15.07;12.03;;;;;;;21.31;60.36;100419.53;5036753;28;20451;-77
2023/05/23 06:41:46;;;;;;;15.77;12.03;;;;;;;21.30;60.22;100424.28;5032873;28;20886;-77
2023/05/23 06:44:12;;;;;;;13.40;12.00;;;;;;;21.47;59.39;100429.84;5019620;28;20972;-77
2023/05/23 06:46:37;;;;;;;14.90;11.80;;;;;;;21.48;58.93;100433.41;5034388;28;20413;-77
2023/05/23 06:49:03;;;;;;;14.97;12.77;;;;;;;21.52;58.98;100438.00;4969844;28;1729790;-76
2023/05/23 06:51:28;;;;;;;14.13;12.63;;;;;;;21.50;59.05;100437.50;5031640;28;20415;-76
2023/05/23 06:53:55;;;;;;;16.30;12.57;;;;;;;21.47;59.29;100446.38;5028191;28;20857;-76
2023/05/23 06:56:21;;;;;;;13.25;11.82;;;;;;;21.50;59.28;100440.25;5029260;28;20417;-76
2023/05/23 06:58:46;;;;;;;13.63;10.98;;;;;;;21.56;59.17;100446.44;5030752;28;20454;-75
2023/05/23 07:01:12;;;;;;;11.17;10.03;;;;;;;21.54;59.08;100454.19;5034992;28;20879;-75
2023/05/23 07:03:40;;;;;;;11.17;9.80;;;;;;;21.52;58.62;100459.22;5027428;28;20398;-76
2023/05/23 07:06:06;;;;;;;12.20;9.80;;;;;;;21.43;58.37;100453.69;5037331;28;20408;-77
2023/05/23 07:08:31;;;;;;;12.88;8.85;;;;;;;21.38;58.39;100453.00;5034912;28;20505;-77
2023/05/23 07:10:56;;;;;;;10.17;8.93;;;;;;;21.33;58.46;100464.16;5031271;28;20498;-77
2023/05/23 07:13:21;;;;;;;10.33;8.23;;;;;;;21.28;58.71;100467.84;5030958;28;20407;-76
2023/05/23 07:15:47;;;;;;;11.73;8.57;;;;;;;21.31;58.09;100467.22;5031228;28;20889;-77
2023/05/23 07:18:12;;;;;;;9.05;8.20;;;;;;;21.33;57.82;100473.25;5035572;28;20430;-77
2023/05/23 07:20:37;;;;;;;9.87;7.83;;;;;;;21.37;57.72;100470.69;5033529;28;20415;-77
2023/05/23 07:23:02;;;;;;;8.97;7.63;;;;;;;21.35;58.07;100472.91;5033935;28;20897;-77
2023/05/23 07:25:28;;;;;;;11.37;7.97;;;;;;;21.32;58.24;100470.81;5030076;28;20411;-77
2023/05/23 07:27:53;;;;;;;9.13;8.23;;;;;;;21.38;57.66;100475.03;5034147;28;20488;-77
2023/05/23 07:30:21;;;;;;;7.80;6.82;;;;;;;21.47;57.29;100484.19;5029149;28;20417;-77
2023/05/23 07:32:47;;;;;;;10.75;7.18;;;;;;;21.53;56.21;100483.75;5028835;28;20410;-77
2023/05/23 07:35:13;;;;;;;7.15;6.45;;;;;;;21.55;56.26;100486.97;5037301;28;20407;-77
2023/05/23 07:37:38;;;;;;;10.57;6.95;;;;;;;21.56;56.01;100485.03;5028544;28;20409;-77
2023/05/23 07:40:04;;;;;;;7.00;6.30;;;;;;;21.54;55.58;100487.28;5039005;28;20405;-77
2023/05/23 07:42:29;;;;;;;6.97;6.28;;;;;;;21.50;55.70;100495.41;5034605;28;20390;-77
2023/05/23 07:44:55;;;;;;;9.27;7.13;;;;;;;21.62;55.09;100489.28;5039445;28;20473;-77
2023/05/23 07:47:20;;;;;;;7.13;6.40;;;;;;;21.54;55.41;100488.09;5032974;28;20475;-77
2023/05/23 07:49:46;;;;;;;10.00;7.00;;;;;;;21.53;54.92;100488.44;5039702;28;20424;-78
2023/05/23 07:52:11;;;;;;;9.32;7.60;;;;;;;21.56;54.79;100488.63;5037497;28;20402;-76
2023/05/23 07:54:37;;;;;;;11.37;7.50;;;;;;;21.60;54.64;100486.84;5033598;28;20390;-76
2023/05/23 07:57:02;;;;;;;9.32;7.70;;;;;;;21.67;54.49;100501.00;5026167;28;20412;-76
2023/05/23 07:59:29;;;;;;;9.93;8.77;;;;;;;21.77;54.15;100485.31;5037650;28;20405;-76
2023/05/23 08:01:54;;;;;;;9.32;8.43;;;;;;;21.80;54.41;100484.66;5038796;28;20408;-77
2023/05/23 08:04:20;;;;;;;10.13;8.00;;;;;;;21.90;53.73;100485.19;5033675;28;20541;-77
2023/05/23 08:06:48;;;;;;;10.50;8.57;;;;;;;21.74;54.22;100495.00;5035449;28;20770;-76
2023/05/23 08:09:14;;;;;;;12.98;8.18;;;;;;;21.60;54.07;100500.63;5036983;28;20397;-77
2023/05/23 08:11:39;;;;;;;11.40;9.10;;;;;;;21.56;54.26;100496.06;5040788;28;20463;-76
2023/05/23 08:14:04;;;;;;;11.30;8.90;;;;;;;21.70;54.47;100497.59;5034372;28;20743;-77
2023/05/23 08:16:30;;;;;;;9.87;7.90;;;;;;;21.72;54.54;100500.88;5028297;28;20512;-77
2023/05/23 08:18:55;;;;;;;9.47;8.47;;;;;;;21.72;54.59;100494.53;5041339;28;20468;-77
2023/05/23 08:21:20;;;;;;;8.90;8.00;;;;;;;21.69;54.49;100495.16;5041801;28;20440;-77
2023/05/23 08:23:45;;;;;;;10.27;8.35;;;;;;;21.74;54.42;100506.88;5046903;28;20458;-77
2023/05/23 08:26:11;;;;;;;13.63;9.10;;;;;;;21.70;54.31;100510.59;5038299;28;20456;-77
2023/05/23 08:28:36;;;;;;;11.60;8.77;;;;;;;21.64;54.14;100511.84;5041503;28;20401;-77
2023/05/23 08:31:01;;;;;;;9.07;8.17;;;;;;;21.64;54.37;100520.94;5042474;28;20419;-76
2023/05/23 08:33:27;;;;;;;12.25;8.40;;;;;;;21.59;54.07;100509.22;5039245;28;20394;-77
2023/05/23 08:35:52;;;;;;;10.63;8.47;;;;;;;21.61;54.33;100518.81;5037645;28;20930;-77
2023/05/23 08:38:20;;;;;;;10.93;8.93;;;;;;;21.72;53.98;100520.16;5040223;28;20403;-77
2023/05/23 08:40:52;;;;;;;11.65;9.10;;;;;;;21.80;53.92;100518.56;5038695;28;20480;-77
2023/05/23 08:43:18;;;;;;;12.43;10.10;;;;;;;21.80;54.08;100532.34;5027802;28;20426;-77
2023/05/23 08:45:45;;;;;;;9.80;8.77;;;;;;;21.67;54.09;100530.50;5029807;28;20391;-76
2023/05/23 08:48:12;;;;;;;12.85;8.95;;;;;;;21.53;54.31;100529.81;5038209;28;20457;-77
2023/05/23 08:50:40;;;;;;;9.23;7.93;;;;;;;21.51;54.39;100545.84;5042067;28;20405;-78
2023/05/23 08:53:07;;;;;;;7.70;7.00;;;;;;;21.51;54.14;100535.63;5039850;28;20429;-77
2023/05/23 08:55:33;;;;;;;7.53;6.40;;;;;;;21.55;53.97;100533.88;5038329;28;20430;-77
2023/05/23 08:57:59;;;;;;;8.95;7.53;;;;;;;21.60;53.89;100536.47;5038304;28;20401;-77
2023/05/23 09:00:25;;;;;;;8.67;7.10;;;;;;;21.76;53.32;100533.31;5026439;28;20414;-77
2023/05/23 09:02:51;;;;;;;10.03;7.27;;;;;;;21.76;53.28;100536.09;5038404;28;20412;-76
2023/05/23 09:05:16;;;;;;;9.15;6.43;;;;;;;21.65;53.73;100535.53;5033151;28;20878;-77
2023/05/23 09:07:46;;;;;;;8.63;6.20;;;;;;;21.70;53.70;100538.97;5022415;28;20492;-77
2023/05/23 09:10:13;;;;;;;6.20;5.60;;;;;;;21.80;52.96;100539.84;5040015;28;20477;-76
2023/05/23 09:12:38;;;;;;;6.40;5.57;;;;;;;21.89;52.52;100535.16;5034039;28;20805;-77
2023/05/23 09:15:05;;;;;;;5.13;4.72;;;;;;;22.06;52.44;100536.06;5037687;28;20391;-77
2023/05/23 09:17:32;;;;;;;5.67;5.07;;;;;;;22.29;51.88;100536.00;5031544;28;20418;-77
2023/05/23 09:19:57;;;;;;;5.93;5.28;;;;;;;22.37;51.77;100538.75;5040800;28;20946;-77
2023/05/23 09:22:25;;;;;;;5.57;5.10;;;;;;;22.36;51.65;100539.09;5040967;28;20397;-76
2023/05/23 09:24:52;;;;;;;5.32;4.82;;;;;;;22.39;51.52;100536.50;5037730;28;20446;-76
2023/05/23 09:27:17;;;;;;;4.43;4.07;;;;;;;22.38;51.34;100542.34;5038344;28;20387;-77
2023/05/23 09:29:42;;;;;;;4.22;3.92;;;;;;;22.29;51.15;100541.50;5034981;28;20405;-77
2023/05/23 09:32:18;;;;;;;3.80;3.60;;;;;;;22.25;50.70;100541.34;5041463;28;20456;-77
2023/05/23 09:34:49;;;;;;;3.53;3.22;;;;;;;22.17;50.47;100553.97;5031063;28;20424;-76
2023/05/23 09:37:17;;;;;;;3.08;2.88;;;;;;;22.21;50.19;100552.22;5040443;28;20455;-76
2023/05/23 09:39:45;;;;;;;3.57;3.27;;;;;;;22.32;50.00;100547.22;5045246;28;20394;-77
2023/05/23 09:42:10;;;;;;;3.72;3.40;;;;;;;22.34;49.78;100544.13;5043268;28;20393;-76
2023/05/23 09:44:41;;;;;;;2.97;2.80;;;;;;;22.41;49.76;100544.47;5038003;28;20406;-76
2023/05/23 09:47:06;;;;;;;3.03;2.83;;;;;;;22.38;49.69;100550.63;5043029;28;20387;-77
2023/05/23 09:49:31;;;;;;;2.50;2.40;;;;;;;22.43;49.32;100544.94;5045100;28;20466;-76
2023/05/23 09:51:58;;;;;;;2.60;2.50;;;;;;;22.34;49.45;100541.34;5043455;28;20388;-77
2023/05/23 09:54:23;;;;;;;4.25;2.40;;;;;;;22.39;49.50;100544.81;5038822;28;20451;-75
2023/05/23 09:56:52;;;;;;;3.27;2.80;;;;;;;22.39;49.21;100552.25;5038715;28;20425;-77
2023/05/23 09:59:23;;;;;;;2.60;2.42;;;;;;;22.38;49.50;100554.22;5044125;28;20484;-76
2023/05/23 10:01:50;;;;;;;2.55;2.45;;;;;;;22.30;49.58;100562.44;5041973;28;20401;-76
2023/05/23 10:04:21;;;;;;;2.92;2.63;;;;;;;22.37;49.44;100558.09;5040534;28;20508;-77
2023/05/23 10:06:53;;;;;;;3.57;3.07;;;;;;;22.53;49.34;100550.97;5044043;28;20401;-77
2023/05/23 10:09:22;;;;;;;3.30;3.10;;;;;;;22.63;49.16;100547.91;5042861;28;20390;-77
2023/05/23 10:12:06;;;;;;;3.10;2.75;;;;;;;22.64;48.91;100554.25;5039837;28;20399;-77
2023/05/23 10:14:37;;;;;;;3.17;2.88;;;;;;;22.61;48.80;100555.72;5040494;28;20924;-77
2023/05/23 10:17:19;;;;;;;2.83;2.63;;;;;;;22.68;48.81;100553.31;5026295;28;20409;-76
2023/05/23 10:19:52;;;;;;;3.13;2.70;;;;;;;22.80;48.97;100551.84;5030055;28;20391;-77
2023/05/23 10:22:19;;;;;;;2.80;2.70;;;;;;;22.78;48.90;100548.63;5024980;28;20429;-76
2023/05/23 10:24:45;;;;;;;2.70;2.53;;;;;;;22.86;48.85;100542.28;5043488;28;20410;-77
2023/05/23 10:27:11;;;;;;;3.28;3.08;;;;;;;23.58;47.66;100547.91;5044225;28;20393;-77
2023/05/23 10:29:36;;;;;;;2.72;2.53;;;;;;;24.70;45.77;100542.69;5040773;28;20878;-76
2023/05/23 10:32:04;;;;;;;3.23;2.63;;;;;;;25.50;44.16;100551.66;5040733;28;20394;-76
2023/05/23 10:35:01;;;;;;;2.45;2.35;;;;;;;26.19;42.45;100543.38;5038575;28;20401;-76
2023/05/23 10:37:37;;;;;;;2.38;2.28;;;;;;;26.55;41.79;100548.09;5031791;28;20387;-77
2023/05/23 10:40:12;;;;;;;2.28;2.22;;;;;;;26.94;40.95;100544.56;5040579;28;20890;-76
2023/05/23 10:43:00;;;;;;;2.07;1.90;;;;;;;27.11;39.62;100540.66;5051077;28;20476;-75
2023/05/23 10:45:26;;;;;;;2.42;2.30;;;;;;;26.54;40.36;100538.94;5019659;28;20417;-77
2023/05/23 10:47:52;;;;;;;2.10;1.90;;;;;;;25.85;41.42;100541.81;5035286;28;20506;-77
2023/05/23 10:50:35;;;;;;;1.80;1.80;;;;;;;25.29;42.79;100549.72;5040517;28;20983;-77
2023/05/23 10:53:03;;;;;;;1.90;1.80;;;;;;;24.95;43.43;100552.00;5031439;28;20408;-76
2023/05/23 10:55:35;;;;;;;2.30;2.10;;;;;;;24.99;42.93;100552.94;5039554;28;20410;-76
2023/05/23 10:58:21;;;;;;;2.40;2.17;;;;;;;25.70;42.45;100548.03;5040976;28;20495;-76
2023/05/23 11:01:00;;;;;;;1.80;1.80;;;;;;;26.43;41.35;100551.69;5041684;28;20409;-76
2023/05/23 11:03:52;;;;;;;6.43;2.00;;;;;;;26.61;40.52;100544.72;5034157;28;20407;-76
2023/05/23 11:06:43;;;;;;;2.63;1.65;;;;;;;26.39;40.51;100539.66;5029919;28;20393;-76
2023/05/23 11:09:20;;;;;;;2.53;2.20;;;;;;;25.68;41.76;100545.63;5021182;28;20807;-76
2023/05/23 11:11:53;;;;;;;1.88;1.80;;;;;;;25.17;42.61;100551.63;5037496;28;20418;-76
2023/05/23 11:14:30;;;;;;;2.50;2.10;;;;;;;24.80;43.28;100536.75;5028012;28;20410;-76